createdAt,value
2018-07-31T00:02:12.953Z,72.00
2018-07-31T00:04:40.876Z,72.08
2018-07-31T00:07:08.755Z,72.30
2018-07-31T00:09:36.390Z,72.01
2018-07-31T00:12:04.302Z,72.27
2018-07-31T00:14:32.183Z,71.86
2018-07-31T00:16:59.833Z,72.26
2018-07-31T00:19:27.476Z,72.59
2018-07-31T00:21:55.404Z,72.55
2018-07-31T00:24:22.994Z,72.12
2018-07-31T00:26:50.807Z,72.21
2018-07-31T00:29:18.723Z,71.97
2018-07-31T00:31:46.442Z,71.92
2018-07-31T00:34:14.192Z,72.05
2018-07-31T00:36:42.152Z,72.55
2018-07-31T00:39:10.830Z,72.58
2018-07-31T00:41:38.700Z,72.69
2018-07-31T00:44:06.590Z,72.15
2018-07-31T00:46:34.203Z,72.68
2018-07-31T00:49:01.993Z,72.32
2018-07-31T00:51:29.934Z,72.25
2018-07-31T00:53:57.624Z,72.87
2018-07-31T00:56:25.477Z,72.73
2018-07-31T00:58:53.387Z,72.90
2018-07-31T01:01:21.252Z,72.95
2018-07-31T01:03:49.087Z,72.43
2018-07-31T01:06:21.544Z,72.52
2018-07-31T01:08:49.415Z,72.55
2018-07-31T01:11:17.213Z,73.06
2018-07-31T01:13:45.029Z,72.87
2018-07-31T01:16:12.694Z,72.73
2018-07-31T01:18:40.406Z,72.33
2018-07-31T01:21:08.109Z,72.96
2018-07-31T01:23:35.691Z,73.06
2018-07-31T01:26:03.541Z,72.58
2018-07-31T01:28:31.412Z,72.61
2018-07-31T01:30:59.052Z,73.20
2018-07-31T01:33:26.862Z,73.15
2018-07-31T01:35:54.783Z,73.18
2018-07-31T01:38:22.420Z,72.69
2018-07-31T01:40:50.313Z,72.67
2018-07-31T01:43:18.117Z,73.11
2018-07-31T01:45:45.745Z,73.12
2018-07-31T01:48:13.518Z,72.84
2018-07-31T01:50:41.412Z,72.64
2018-07-31T01:53:09.058Z,73.05
2018-07-31T01:55:36.766Z,73.04
2018-07-31T01:58:04.542Z,73.04
2018-07-31T02:00:32.153Z,73.01
2018-07-31T02:02:59.976Z,72.52
2018-07-31T02:05:27.776Z,72.60
2018-07-31T02:07:55.380Z,72.51
2018-07-31T02:10:23.309Z,72.55
2018-07-31T02:12:51.089Z,72.89
2018-07-31T02:15:18.745Z,72.78
2018-07-31T02:17:46.476Z,72.76
2018-07-31T02:20:14.331Z,73.07
2018-07-31T02:22:41.960Z,73.10
2018-07-31T02:25:09.848Z,73.04
2018-07-31T02:27:37.648Z,73.14
2018-07-31T02:30:20.216Z,72.57
2018-07-31T02:32:48.122Z,73.00
2018-07-31T02:35:15.875Z,73.08
2018-07-31T02:37:43.702Z,73.11
2018-07-31T02:40:11.597Z,72.58
2018-07-31T02:42:39.324Z,72.75
2018-07-31T02:45:09.042Z,73.11
2018-07-31T02:47:37.186Z,72.69
2018-07-31T02:53:04.052Z,72.76
2018-07-31T02:55:31.647Z,73.26
2018-07-31T02:57:59.302Z,73.31
2018-07-31T03:00:27.357Z,73.03
2018-07-31T03:02:54.985Z,72.88
2018-07-31T03:05:22.649Z,72.62
2018-07-31T03:07:50.579Z,72.68
2018-07-31T03:10:18.241Z,73.22
2018-07-31T03:12:45.849Z,72.74
2018-07-31T03:15:14.007Z,72.86
2018-07-31T03:17:41.641Z,73.21
2018-07-31T03:20:09.362Z,72.69
2018-07-31T03:22:37.230Z,73.11
2018-07-31T03:25:05.072Z,72.80
2018-07-31T03:27:32.808Z,72.78
2018-07-31T03:30:00.974Z,72.72
2018-07-31T03:32:28.548Z,73.24
2018-07-31T03:34:56.157Z,72.76
2018-07-31T03:37:24.113Z,73.30
2018-07-31T03:39:51.777Z,72.93
2018-07-31T03:42:19.378Z,73.05
2018-07-31T03:44:47.327Z,72.96
2018-07-31T03:47:14.993Z,73.04
2018-07-31T03:49:42.676Z,73.13
2018-07-31T03:52:10.798Z,73.24
2018-07-31T03:54:38.465Z,73.73
2018-07-31T03:57:06.308Z,73.50
2018-07-31T03:59:34.276Z,73.71
2018-07-31T04:02:01.936Z,73.81
2018-07-31T04:04:29.615Z,73.75
2018-07-31T04:06:57.776Z,73.98
2018-07-31T04:09:25.469Z,73.79
2018-07-31T04:11:53.135Z,73.77
2018-07-31T04:14:21.054Z,74.14
2018-07-31T04:16:48.676Z,73.82
2018-07-31T04:19:16.356Z,73.78
2018-07-31T04:21:44.323Z,73.82
2018-07-31T04:24:11.970Z,74.36
2018-07-31T04:26:39.587Z,74.27
2018-07-31T04:29:07.447Z,73.86
2018-07-31T04:31:35.194Z,74.45
2018-07-31T04:34:02.879Z,73.95
2018-07-31T04:36:30.832Z,74.18
2018-07-31T04:38:58.439Z,74.61
2018-07-31T04:41:26.086Z,74.47
2018-07-31T04:43:54.116Z,74.36
2018-07-31T04:46:21.776Z,74.55
2018-07-31T04:48:49.410Z,74.01
2018-07-31T04:51:17.504Z,74.52
2018-07-31T04:53:45.137Z,74.04
2018-07-31T04:56:12.733Z,74.58
2018-07-31T04:58:40.769Z,74.04
2018-07-31T05:01:08.418Z,74.56
2018-07-31T05:03:36.082Z,74.18
2018-07-31T05:06:04.130Z,74.62
2018-07-31T05:08:31.759Z,74.42
2018-07-31T05:10:59.441Z,74.33
2018-07-31T05:13:27.545Z,74.61
2018-07-31T05:15:55.101Z,74.03
2018-07-31T05:18:22.790Z,74.08
2018-07-31T05:20:50.541Z,74.18
2018-07-31T05:23:19.149Z,74.51
2018-07-31T05:25:46.760Z,74.03
2018-07-31T05:28:14.905Z,74.48
2018-07-31T05:30:42.584Z,74.48
2018-07-31T05:33:10.167Z,73.97
2018-07-31T05:35:38.021Z,74.19
2018-07-31T05:38:05.710Z,73.81
2018-07-31T05:40:33.374Z,74.43
2018-07-31T05:43:01.487Z,73.77
2018-07-31T05:45:29.108Z,73.66
2018-07-31T05:47:56.667Z,73.62
2018-07-31T05:50:24.669Z,74.09
2018-07-31T05:52:52.847Z,73.49
2018-07-31T05:55:20.509Z,73.45
2018-07-31T05:57:48.506Z,73.34
2018-07-31T06:00:16.162Z,73.78
2018-07-31T06:02:43.835Z,73.23
2018-07-31T06:05:11.728Z,73.19
2018-07-31T06:07:39.406Z,73.30
2018-07-31T06:10:07.579Z,73.33
2018-07-31T06:12:35.486Z,73.67
2018-07-31T06:15:03.281Z,73.18
2018-07-31T06:17:30.949Z,73.10
2018-07-31T06:19:58.947Z,73.48
2018-07-31T06:22:26.605Z,73.36
2018-07-31T06:24:54.232Z,73.25
2018-07-31T06:27:22.252Z,72.91
2018-07-31T06:29:49.918Z,73.03
2018-07-31T06:32:17.573Z,72.84
2018-07-31T06:34:46.513Z,72.24
2018-07-31T06:37:14.136Z,72.47
2018-07-31T06:39:42.114Z,72.03
2018-07-31T06:42:10.443Z,72.30
2018-07-31T06:44:38.330Z,72.08
2018-07-31T06:47:06.218Z,71.67
2018-07-31T06:49:34.168Z,71.89
2018-07-31T06:52:01.751Z,71.44
2018-07-31T06:54:29.382Z,71.39
2018-07-31T06:56:57.419Z,70.93
2018-07-31T06:59:25.040Z,71.29
2018-07-31T07:01:52.736Z,70.48
2018-07-31T07:04:20.654Z,70.30
2018-07-31T07:06:48.382Z,70.43
2018-07-31T07:09:15.984Z,69.92
2018-07-31T07:11:44.057Z,70.15
2018-07-31T07:14:11.774Z,69.68
2018-07-31T07:16:39.459Z,69.59
2018-07-31T07:19:07.556Z,69.67
2018-07-31T07:21:35.246Z,70.13
2018-07-31T07:24:02.930Z,69.36
2018-07-31T07:26:31.015Z,69.12
2018-07-31T07:28:58.642Z,69.13
2018-07-31T07:31:26.316Z,68.92
2018-07-31T07:33:54.307Z,68.50
2018-07-31T07:36:21.896Z,68.63
2018-07-31T07:38:49.569Z,68.05
2018-07-31T07:41:17.448Z,67.89
2018-07-31T07:43:45.087Z,67.77
2018-07-31T07:46:12.751Z,68.21
2018-07-31T07:48:40.619Z,67.55
2018-07-31T07:51:08.287Z,67.49
2018-07-31T07:53:35.837Z,67.39
2018-07-31T07:56:03.953Z,67.72
2018-07-31T07:58:31.540Z,67.44
2018-07-31T08:00:59.262Z,67.33
2018-07-31T08:03:27.105Z,66.98
2018-07-31T08:05:54.722Z,66.63
2018-07-31T08:08:22.392Z,66.84
2018-07-31T08:10:50.355Z,66.60
2018-07-31T08:13:17.958Z,66.33
2018-07-31T08:15:45.603Z,66.08
2018-07-31T08:18:13.490Z,65.43
2018-07-31T08:20:41.116Z,65.95
2018-07-31T08:23:08.751Z,65.28
2018-07-31T08:25:36.674Z,65.86
2018-07-31T08:28:04.435Z,65.71
2018-07-31T08:30:32.056Z,65.07
2018-07-31T08:33:00.098Z,65.15
2018-07-31T08:35:27.997Z,65.54
2018-07-31T08:37:55.799Z,65.32
2018-07-31T08:40:23.895Z,64.88
2018-07-31T08:42:51.529Z,64.64
2018-07-31T08:45:19.264Z,64.56
2018-07-31T08:47:47.392Z,64.61
2018-07-31T08:50:15.039Z,64.05
2018-07-31T08:52:42.697Z,64.25
2018-07-31T08:55:10.756Z,64.48
2018-07-31T08:57:38.396Z,64.36
2018-07-31T09:00:07.546Z,64.22
2018-07-31T09:02:35.728Z,63.24
2018-07-31T09:05:03.582Z,63.77
2018-07-31T09:07:31.281Z,62.72
2018-07-31T09:09:59.385Z,62.81
2018-07-31T09:12:27.022Z,62.45
2018-07-31T09:14:54.571Z,62.14
2018-07-31T09:17:22.545Z,62.36
2018-07-31T09:19:50.136Z,62.29
2018-07-31T09:22:18.179Z,62.07
2018-07-31T09:24:46.257Z,61.83
2018-07-31T09:27:13.880Z,61.17
2018-07-31T09:29:41.670Z,60.31
2018-07-31T09:32:09.538Z,60.29
2018-07-31T09:34:42.645Z,59.91
2018-07-31T09:37:10.434Z,59.77
2018-07-31T09:39:38.276Z,59.42
2018-07-31T09:42:05.985Z,59.56
2018-07-31T09:44:33.862Z,59.73
2018-07-31T09:47:01.761Z,59.30
2018-07-31T09:49:29.454Z,59.38
2018-07-31T09:51:57.308Z,59.02
2018-07-31T09:54:25.189Z,58.52
2018-07-31T09:56:52.818Z,57.81
2018-07-31T09:59:20.565Z,57.06
2018-07-31T10:01:48.425Z,56.36
2018-07-31T10:04:16.110Z,55.47
2018-07-31T10:06:43.874Z,54.32
2018-07-31T10:09:11.638Z,53.73
2018-07-31T10:11:39.278Z,53.24
2018-07-31T10:14:07.625Z,52.86
2018-07-31T10:16:35.381Z,52.36
2018-07-31T10:19:02.969Z,51.52
2018-07-31T10:21:30.742Z,51.69
2018-07-31T10:23:58.598Z,52.07
2018-07-31T10:26:26.215Z,51.95
2018-07-31T10:28:54.092Z,51.13
2018-07-31T10:31:21.862Z,51.04
2018-07-31T10:33:49.427Z,51.08
2018-07-31T10:36:17.151Z,50.48
2018-07-31T10:38:45.055Z,49.90
2018-07-31T10:41:12.629Z,50.00
2018-07-31T10:43:40.431Z,49.74
2018-07-31T10:46:08.299Z,49.64
2018-07-31T10:48:35.923Z,49.44
2018-07-31T10:51:03.840Z,49.53
2018-07-31T10:53:31.855Z,49.53
2018-07-31T10:55:59.438Z,49.82
2018-07-31T10:58:27.330Z,49.28
2018-07-31T11:00:55.146Z,49.60
2018-07-31T11:03:22.695Z,49.17
2018-07-31T11:05:50.514Z,48.80
2018-07-31T11:08:18.381Z,48.89
2018-07-31T11:10:45.997Z,48.23
2018-07-31T11:13:13.737Z,48.25
2018-07-31T11:15:41.603Z,48.62
2018-07-31T11:18:09.308Z,48.25
2018-07-31T11:20:37.095Z,48.63
2018-07-31T11:23:04.926Z,48.57
2018-07-31T11:25:32.553Z,48.30
2018-07-31T11:28:00.505Z,48.38
2018-07-31T11:30:28.292Z,48.73
2018-07-31T11:32:55.992Z,48.26
2018-07-31T11:35:23.777Z,48.96
2018-07-31T11:37:51.490Z,48.11
2018-07-31T11:40:19.159Z,47.96
2018-07-31T11:42:46.822Z,48.42
2018-07-31T11:45:14.722Z,47.80
2018-07-31T11:47:42.401Z,47.92
2018-07-31T11:50:10.242Z,47.59
2018-07-31T11:52:38.043Z,47.07
2018-07-31T11:55:05.699Z,47.32
2018-07-31T11:57:33.413Z,47.49
2018-07-31T12:00:01.338Z,48.00
2018-07-31T12:02:28.934Z,47.95
2018-07-31T12:04:56.790Z,47.90
2018-07-31T12:07:24.709Z,47.73
2018-07-31T12:09:52.748Z,47.87
2018-07-31T12:12:20.475Z,47.38
2018-07-31T12:14:48.202Z,46.43
2018-07-31T12:17:15.816Z,47.08
2018-07-31T12:19:43.605Z,46.29
2018-07-31T12:22:11.304Z,46.45
2018-07-31T12:24:38.846Z,45.73
2018-07-31T12:27:06.847Z,46.06
2018-07-31T12:29:34.590Z,46.71
2018-07-31T12:32:02.263Z,45.82
2018-07-31T12:34:30.100Z,46.32
2018-07-31T12:36:57.956Z,45.89
2018-07-31T12:39:25.537Z,45.88
2018-07-31T12:41:53.376Z,45.66
2018-07-31T12:47:03.884Z,45.66
2018-07-31T12:49:31.465Z,46.47
2018-07-31T12:51:59.101Z,46.27
2018-07-31T12:54:27.122Z,45.88
2018-07-31T12:56:54.694Z,46.07
2018-07-31T12:59:22.385Z,46.03
2018-07-31T13:01:50.527Z,45.87
2018-07-31T13:04:18.179Z,46.41
2018-07-31T13:06:46.003Z,45.83
2018-07-31T13:09:13.751Z,45.78
2018-07-31T13:11:41.409Z,46.18
2018-07-31T13:14:09.236Z,46.50
2018-07-31T13:16:36.946Z,46.16
2018-07-31T13:19:04.599Z,46.09
2018-07-31T13:21:32.420Z,46.14
2018-07-31T13:24:00.174Z,45.95
2018-07-31T13:26:27.806Z,46.47
2018-07-31T13:28:55.524Z,46.93
2018-07-31T13:31:23.183Z,47.30
2018-07-31T13:33:50.795Z,46.99
2018-07-31T13:36:18.831Z,47.18
2018-07-31T13:38:46.590Z,47.37
2018-07-31T13:41:14.321Z,47.10
2018-07-31T13:43:42.250Z,47.00
2018-07-31T13:46:40.568Z,47.62
2018-07-31T13:49:08.299Z,47.30
2018-07-31T13:51:35.943Z,47.54
2018-07-31T13:54:03.960Z,47.99
2018-07-31T13:56:31.683Z,47.99
2018-07-31T13:58:59.286Z,48.66
2018-07-31T14:01:26.978Z,47.78
2018-07-31T14:03:54.842Z,48.69
2018-07-31T14:06:22.512Z,48.12
2018-07-31T14:08:50.282Z,48.00
2018-07-31T14:11:17.993Z,48.94
2018-07-31T14:13:45.654Z,48.55
2018-07-31T14:16:13.433Z,48.85
2018-07-31T14:18:41.137Z,49.47
2018-07-31T14:21:08.940Z,49.25
2018-07-31T14:23:36.697Z,49.20
2018-07-31T14:26:04.534Z,48.71
2018-07-31T14:28:32.121Z,49.28
2018-07-31T14:30:59.919Z,49.86
2018-07-31T14:33:27.625Z,49.88
2018-07-31T14:35:55.252Z,49.54
2018-07-31T14:41:02.880Z,50.35
2018-07-31T14:43:30.538Z,49.88
2018-07-31T14:45:58.128Z,50.71
2018-07-31T14:48:26.170Z,50.62
2018-07-31T14:50:53.692Z,50.63
2018-07-31T14:53:21.252Z,50.42
2018-07-31T14:55:49.227Z,50.77
2018-07-31T14:58:16.805Z,50.43
2018-07-31T15:00:44.493Z,50.58
2018-07-31T15:03:12.261Z,51.06
2018-07-31T15:05:39.869Z,51.16
2018-07-31T15:08:07.531Z,50.87
2018-07-31T15:10:35.449Z,50.72
2018-07-31T15:13:03.109Z,50.71
2018-07-31T15:15:30.686Z,49.87
2018-07-31T15:17:58.638Z,50.45
2018-07-31T15:20:26.198Z,50.18
2018-07-31T15:22:53.806Z,49.95
2018-07-31T15:25:21.926Z,50.18
2018-07-31T15:27:49.561Z,50.08
2018-07-31T15:30:17.193Z,50.53
2018-07-31T15:32:45.173Z,50.24
2018-07-31T15:35:12.840Z,50.24
2018-07-31T15:37:40.505Z,50.68
2018-07-31T15:40:08.484Z,50.15
2018-07-31T15:42:36.105Z,50.45
2018-07-31T15:45:04.104Z,50.47
2018-07-31T15:47:32.164Z,50.97
2018-07-31T15:49:59.718Z,50.64
2018-07-31T15:52:27.341Z,51.09
2018-07-31T15:54:55.382Z,50.99
2018-07-31T15:57:22.948Z,50.87
2018-07-31T15:59:50.564Z,51.13
2018-07-31T16:02:18.349Z,51.84
2018-07-31T16:04:45.882Z,51.86
2018-07-31T16:07:13.531Z,51.95
2018-07-31T16:09:41.302Z,51.82
2018-07-31T16:12:08.992Z,52.39
2018-07-31T16:14:51.724Z,53.10
2018-07-31T16:17:19.315Z,53.28
2018-07-31T16:19:46.937Z,53.54
2018-07-31T16:22:15.007Z,53.51
2018-07-31T16:24:42.923Z,54.13
2018-07-31T16:27:10.578Z,53.96
2018-07-31T16:29:38.493Z,54.34
2018-07-31T16:32:06.204Z,54.65
2018-07-31T16:34:33.845Z,55.20
2018-07-31T16:37:01.976Z,56.05
2018-07-31T16:39:29.587Z,56.01
2018-07-31T16:41:57.377Z,56.94
2018-07-31T16:44:25.317Z,57.48
2018-07-31T16:46:52.907Z,57.57
2018-07-31T16:49:20.567Z,58.06
2018-07-31T16:51:48.549Z,57.72
2018-07-31T16:54:16.163Z,58.54
2018-07-31T16:56:43.765Z,58.33
2018-07-31T16:59:11.672Z,58.78
2018-07-31T17:01:39.263Z,59.05
2018-07-31T17:04:06.931Z,58.72
2018-07-31T17:06:34.780Z,58.89
2018-07-31T17:09:02.451Z,59.01
2018-07-31T17:11:30.205Z,59.23
2018-07-31T17:13:58.189Z,59.51
2018-07-31T17:16:25.793Z,59.81
2018-07-31T17:18:53.403Z,60.16
2018-07-31T17:21:21.172Z,60.73
2018-07-31T17:23:48.762Z,60.91
2018-07-31T17:26:16.340Z,60.70
2018-07-31T17:28:44.282Z,60.79
2018-07-31T17:31:11.965Z,61.07
2018-07-31T17:33:39.537Z,61.17
2018-07-31T17:36:07.599Z,62.03
2018-07-31T17:38:35.236Z,61.45
2018-07-31T17:41:02.919Z,62.11
2018-07-31T17:43:30.854Z,62.36
2018-07-31T17:45:58.465Z,61.98
2018-07-31T17:48:26.129Z,62.33
2018-07-31T17:50:54.189Z,62.41
2018-07-31T17:53:21.825Z,62.53
2018-07-31T17:55:49.681Z,62.78
2018-07-31T17:58:17.595Z,62.42
2018-07-31T18:00:45.265Z,63.03
2018-07-31T18:03:12.885Z,62.59
2018-07-31T18:05:40.815Z,62.82
2018-07-31T18:08:08.526Z,63.20
2018-07-31T18:10:36.154Z,63.44
2018-07-31T18:13:04.121Z,63.11
2018-07-31T18:16:02.353Z,63.37
2018-07-31T18:18:30.298Z,62.89
2018-07-31T18:20:58.119Z,63.49
2018-07-31T18:23:25.836Z,63.47
2018-07-31T18:25:53.759Z,63.03
2018-07-31T18:28:21.385Z,63.56
2018-07-31T18:30:48.948Z,63.25
2018-07-31T18:33:16.828Z,63.84
2018-07-31T18:35:44.477Z,63.36
2018-07-31T18:38:12.104Z,63.78
2018-07-31T18:40:42.528Z,63.39
2018-07-31T18:43:10.205Z,63.57
2018-07-31T18:45:37.819Z,63.88
2018-07-31T18:48:05.821Z,63.53
2018-07-31T18:50:33.508Z,63.98
2018-07-31T18:53:01.136Z,63.56
2018-07-31T18:55:29.034Z,64.07
2018-07-31T18:57:56.898Z,63.71
2018-07-31T19:00:24.509Z,64.25
2018-07-31T19:02:52.627Z,64.39
2018-07-31T19:05:20.249Z,64.51
2018-07-31T19:07:47.823Z,64.06
2018-07-31T19:10:15.784Z,64.54
2018-07-31T19:12:43.417Z,64.25
2018-07-31T19:15:11.093Z,64.85
2018-07-31T19:17:39.076Z,64.95
2018-07-31T19:20:06.742Z,64.48
2018-07-31T19:22:34.431Z,64.54
2018-07-31T19:25:02.596Z,64.80
2018-07-31T19:27:30.286Z,65.14
2018-07-31T19:29:57.936Z,65.32
2018-07-31T19:32:25.940Z,64.87
2018-07-31T19:34:53.626Z,65.54
2018-07-31T19:37:21.292Z,65.65
2018-07-31T19:39:49.214Z,65.74
2018-07-31T19:42:17.003Z,65.62
2018-07-31T19:44:44.518Z,65.91
2018-07-31T19:47:12.548Z,66.04
2018-07-31T19:49:40.141Z,66.19
2018-07-31T19:52:07.851Z,66.27
2018-07-31T19:54:36.021Z,66.00
2018-07-31T19:57:03.683Z,66.18
2018-07-31T19:59:31.301Z,66.38
2018-07-31T20:01:59.306Z,66.45
2018-07-31T20:04:26.906Z,66.59
2018-07-31T20:06:54.502Z,66.39
2018-07-31T20:09:24.561Z,66.00
2018-07-31T20:11:52.436Z,66.54
2018-07-31T20:14:20.063Z,66.45
2018-07-31T20:16:47.805Z,66.54
2018-07-31T20:19:15.455Z,66.39
2018-07-31T20:21:43.125Z,66.25
2018-07-31T20:24:11.033Z,66.80
2018-07-31T20:26:38.720Z,66.24
2018-07-31T20:29:06.301Z,66.82
2018-07-31T20:31:34.158Z,66.87
2018-07-31T20:34:01.779Z,66.38
2018-07-31T20:36:29.390Z,66.56
2018-07-31T20:38:57.231Z,66.90
2018-07-31T20:41:24.891Z,66.49
2018-07-31T20:43:52.600Z,67.00
2018-07-31T20:46:20.471Z,66.55
2018-07-31T20:48:48.103Z,66.78
2018-07-31T20:51:15.783Z,67.17
2018-07-31T20:53:44.164Z,66.59
2018-07-31T20:56:18.499Z,67.12
2018-07-31T20:58:46.385Z,66.67
2018-07-31T21:01:14.548Z,66.75
2018-07-31T21:03:42.281Z,66.83
2018-07-31T21:06:10.037Z,66.81
2018-07-31T21:08:37.611Z,67.49
2018-07-31T21:11:05.357Z,67.39
2018-07-31T21:13:33.488Z,67.12
2018-07-31T21:16:01.158Z,67.12
2018-07-31T21:18:28.829Z,67.31
2018-07-31T21:20:56.857Z,67.12
2018-07-31T21:23:24.738Z,67.23
2018-07-31T21:25:52.394Z,67.83
2018-07-31T21:28:20.497Z,67.90
2018-07-31T21:30:48.267Z,67.56
2018-07-31T21:33:15.879Z,67.90
2018-07-31T21:35:43.722Z,67.45
2018-07-31T21:38:11.393Z,67.48
2018-07-31T21:40:38.998Z,67.97
2018-07-31T21:43:06.771Z,68.08
2018-07-31T21:45:34.415Z,68.14
2018-07-31T21:48:02.091Z,67.74
2018-07-31T21:50:30.099Z,67.54
2018-07-31T21:52:57.676Z,68.09
2018-07-31T21:55:25.268Z,68.00
2018-07-31T21:57:53.133Z,67.52
2018-07-31T22:00:20.825Z,67.48
2018-07-31T22:02:48.523Z,67.64
2018-07-31T22:05:16.454Z,67.71
2018-07-31T22:07:44.036Z,67.64
2018-07-31T22:10:11.741Z,68.20
2018-07-31T22:12:39.620Z,68.14
2018-07-31T22:15:07.206Z,68.15
2018-07-31T22:17:34.847Z,68.32
2018-07-31T22:20:02.778Z,68.13
2018-07-31T22:22:30.351Z,68.43
2018-07-31T22:24:57.995Z,67.83
2018-07-31T22:27:25.735Z,68.50
2018-07-31T22:29:53.281Z,68.18
2018-07-31T22:32:20.934Z,67.78
2018-07-31T22:34:48.756Z,68.42
2018-07-31T22:37:16.369Z,68.38
2018-07-31T22:39:44.017Z,68.14
2018-07-31T22:42:11.998Z,68.68
2018-07-31T22:44:39.664Z,68.72
2018-07-31T22:47:07.220Z,68.32
2018-07-31T22:49:35.164Z,68.27
2018-07-31T22:52:02.754Z,68.97
2018-07-31T22:54:30.623Z,69.02
2018-07-31T22:56:58.349Z,68.50
2018-07-31T22:59:25.972Z,68.94
2018-07-31T23:01:53.614Z,68.65
2018-07-31T23:04:21.583Z,68.77
2018-07-31T23:06:49.113Z,69.37
2018-07-31T23:09:16.722Z,68.97
2018-07-31T23:11:44.882Z,69.60
2018-07-31T23:14:12.566Z,69.61
2018-07-31T23:16:40.195Z,69.24
2018-07-31T23:19:08.049Z,69.27
2018-07-31T23:21:35.821Z,69.99
2018-07-31T23:24:03.442Z,69.55
2018-07-31T23:26:31.461Z,69.57
2018-07-31T23:28:58.991Z,70.14
2018-07-31T23:31:26.595Z,70.21
2018-07-31T23:33:54.606Z,70.15
2018-07-31T23:36:22.249Z,69.91
2018-07-31T23:38:49.869Z,69.98
2018-07-31T23:41:17.940Z,69.97
2018-07-31T23:43:45.599Z,70.20
2018-07-31T23:46:13.230Z,70.42
2018-07-31T23:48:40.975Z,70.12
2018-07-31T23:51:08.598Z,70.69
2018-07-31T23:53:36.300Z,70.13
2018-07-31T23:56:04.308Z,70.76
2018-07-31T23:58:31.910Z,70.73
